sensor_id;sensor_type;location;lat;lon;timestamp;P1;durP1;ratioP1;P2;durP2;ratioP2
10863;SDS011;5485;37.558;126.950;2023-02-28T00:04:44;28.10;;;21.00;;
10863;SDS011;5485;37.558;126.950;2023-02-28T00:07:18;29.80;;;21.93;;
10863;SDS011;5485;37.558;126.950;2023-02-28T00:09:45;33.80;;;22.10;;
10863;SDS011;5485;37.558;126.950;2023-02-28T00:12:12;30.13;;;22.47;;
10863;SDS011;5485;37.558;126.950;2023-02-28T00:14:42;33.47;;;23.13;;
10863;SDS011;5485;37.558;126.950;2023-02-28T00:17:09;33.17;;;23.33;;
10863;SDS011;5485;37.558;126.950;2023-02-28T00:19:36;33.67;;;22.90;;
10863;SDS011;5485;37.558;126.950;2023-02-28T00:22:06;30.33;;;21.93;;
10863;SDS011;5485;37.558;126.950;2023-02-28T00:24:33;29.80;;;22.87;;
10863;SDS011;5485;37.558;126.950;2023-02-28T00:27:00;27.57;;;21.73;;
10863;SDS011;5485;37.558;126.950;2023-02-28T00:29:26;32.10;;;24.20;;
10863;SDS011;5485;37.558;126.950;2023-02-28T00:31:53;29.87;;;23.30;;
10863;SDS011;5485;37.558;126.950;2023-02-28T00:34:21;37.63;;;25.77;;
10863;SDS011;5485;37.558;126.950;2023-02-28T00:36:50;32.27;;;24.53;;
10863;SDS011;5485;37.558;126.950;2023-02-28T00:39:17;36.30;;;25.60;;
10863;SDS011;5485;37.558;126.950;2023-02-28T00:41:44;31.23;;;25.00;;
10863;SDS011;5485;37.558;126.950;2023-02-28T00:44:11;33.80;;;26.27;;
10863;SDS011;5485;37.558;126.950;2023-02-28T00:46:46;33.10;;;26.27;;
10863;SDS011;5485;37.558;126.950;2023-02-28T00:49:13;36.23;;;26.53;;
10863;SDS011;5485;37.558;126.950;2023-02-28T00:51:40;35.60;;;27.13;;
10863;SDS011;5485;37.558;126.950;2023-02-28T00:54:07;38.23;;;28.97;;
10863;SDS011;5485;37.558;126.950;2023-02-28T00:56:34;36.23;;;29.00;;
10863;SDS011;5485;37.558;126.950;2023-02-28T00:59:01;38.77;;;29.47;;
10863;SDS011;5485;37.558;126.950;2023-02-28T01:01:28;36.80;;;28.97;;
10863;SDS011;5485;37.558;126.950;2023-02-28T01:03:55;38.10;;;29.63;;
10863;SDS011;5485;37.558;126.950;2023-02-28T01:06:22;35.90;;;29.37;;
10863;SDS011;5485;37.558;126.950;2023-02-28T01:08:49;39.07;;;30.00;;
10863;SDS011;5485;37.558;126.950;2023-02-28T01:11:16;38.90;;;28.90;;
10863;SDS011;5485;37.558;126.950;2023-02-28T01:13:44;33.97;;;27.90;;
10863;SDS011;5485;37.558;126.950;2023-02-28T01:16:12;37.13;;;28.97;;
10863;SDS011;5485;37.558;126.950;2023-02-28T01:18:39;38.87;;;29.10;;
10863;SDS011;5485;37.558;126.950;2023-02-28T01:21:12;35.67;;;28.40;;
10863;SDS011;5485;37.558;126.950;2023-02-28T01:23:41;43.07;;;29.90;;
10863;SDS011;5485;37.558;126.950;2023-02-28T01:26:13;35.60;;;28.33;;
10863;SDS011;5485;37.558;126.950;2023-02-28T01:28:44;40.80;;;29.97;;
10863;SDS011;5485;37.558;126.950;2023-02-28T01:31:12;39.63;;;29.30;;
10863;SDS011;5485;37.558;126.950;2023-02-28T01:33:39;37.03;;;29.30;;
10863;SDS011;5485;37.558;126.950;2023-02-28T01:36:08;35.47;;;29.10;;
10863;SDS011;5485;37.558;126.950;2023-02-28T01:38:38;39.17;;;29.13;;
10863;SDS011;5485;37.558;126.950;2023-02-28T01:41:06;36.97;;;29.20;;
10863;SDS011;5485;37.558;126.950;2023-02-28T01:46:09;35.77;;;29.00;;
10863;SDS011;5485;37.558;126.950;2023-02-28T01:48:40;36.23;;;29.67;;
10863;SDS011;5485;37.558;126.950;2023-02-28T01:51:13;41.53;;;29.33;;
10863;SDS011;5485;37.558;126.950;2023-02-28T01:53:45;34.30;;;28.40;;
10863;SDS011;5485;37.558;126.950;2023-02-28T01:56:17;43.70;;;29.23;;
10863;SDS011;5485;37.558;126.950;2023-02-28T01:58:48;36.00;;;28.37;;
10863;SDS011;5485;37.558;126.950;2023-02-28T02:01:16;38.03;;;29.70;;
10863;SDS011;5485;37.558;126.950;2023-02-28T02:04:07;37.30;;;29.17;;
10863;SDS011;5485;37.558;126.950;2023-02-28T02:06:35;36.87;;;29.37;;
10863;SDS011;5485;37.558;126.950;2023-02-28T02:09:05;41.40;;;29.97;;
10863;SDS011;5485;37.558;126.950;2023-02-28T02:11:32;38.83;;;29.77;;
10863;SDS011;5485;37.558;126.950;2023-02-28T02:26:00;34.20;;;27.43;;
10863;SDS011;5485;37.558;126.950;2023-02-28T02:31:29;44.00;;;30.47;;
10863;SDS011;5485;37.558;126.950;2023-02-28T02:36:51;41.13;;;31.73;;
10863;SDS011;5485;37.558;126.950;2023-02-28T02:42:28;39.33;;;31.23;;
10863;SDS011;5485;37.558;126.950;2023-02-28T02:45:06;38.43;;;32.43;;
10863;SDS011;5485;37.558;126.950;2023-02-28T02:47:37;47.50;;;34.70;;
10863;SDS011;5485;37.558;126.950;2023-02-28T02:50:06;39.10;;;32.38;;
10863;SDS011;5485;37.558;126.950;2023-02-28T02:52:41;40.50;;;30.97;;
10863;SDS011;5485;37.558;126.950;2023-02-28T02:55:15;33.87;;;30.17;;
10863;SDS011;5485;37.558;126.950;2023-02-28T02:57:47;36.50;;;28.43;;
10863;SDS011;5485;37.558;126.950;2023-02-28T03:00:23;35.30;;;29.03;;
10863;SDS011;5485;37.558;126.950;2023-02-28T03:02:56;41.70;;;31.40;;
10863;SDS011;5485;37.558;126.950;2023-02-28T03:05:29;37.47;;;29.67;;
10863;SDS011;5485;37.558;126.950;2023-02-28T03:08:17;36.27;;;29.27;;
10863;SDS011;5485;37.558;126.950;2023-02-28T03:10:45;37.77;;;29.17;;
10863;SDS011;5485;37.558;126.950;2023-02-28T03:15:50;40.90;;;29.73;;
10863;SDS011;5485;37.558;126.950;2023-02-28T03:18:24;39.73;;;31.27;;
10863;SDS011;5485;37.558;126.950;2023-02-28T03:24:06;38.83;;;30.03;;
10863;SDS011;5485;37.558;126.950;2023-02-28T03:26:44;36.25;;;27.40;;
10863;SDS011;5485;37.558;126.950;2023-02-28T03:29:28;37.53;;;29.27;;
10863;SDS011;5485;37.558;126.950;2023-02-28T03:31:58;38.25;;;28.10;;
10863;SDS011;5485;37.558;126.950;2023-02-28T03:34:36;34.87;;;27.10;;
10863;SDS011;5485;37.558;126.950;2023-02-28T03:37:35;34.43;;;26.47;;
10863;SDS011;5485;37.558;126.950;2023-02-28T03:40:07;39.13;;;28.60;;
10863;SDS011;5485;37.558;126.950;2023-02-28T03:42:43;38.08;;;28.00;;
10863;SDS011;5485;37.558;126.950;2023-02-28T03:45:16;31.95;;;26.88;;
10863;SDS011;5485;37.558;126.950;2023-02-28T03:47:53;36.00;;;28.17;;
10863;SDS011;5485;37.558;126.950;2023-02-28T03:50:57;41.20;;;31.15;;
10863;SDS011;5485;37.558;126.950;2023-02-28T03:53:25;38.67;;;28.70;;
10863;SDS011;5485;37.558;126.950;2023-02-28T03:55:55;36.33;;;28.48;;
10863;SDS011;5485;37.558;126.950;2023-02-28T03:58:33;41.05;;;32.42;;
10863;SDS011;5485;37.558;126.950;2023-02-28T04:01:12;38.72;;;32.75;;
10863;SDS011;5485;37.558;126.950;2023-02-28T04:03:46;40.83;;;33.37;;
10863;SDS011;5485;37.558;126.950;2023-02-28T04:06:20;39.03;;;32.43;;
10863;SDS011;5485;37.558;126.950;2023-02-28T04:08:48;41.47;;;35.07;;
10863;SDS011;5485;37.558;126.950;2023-02-28T04:13:54;41.73;;;34.13;;
10863;SDS011;5485;37.558;126.950;2023-02-28T04:16:21;44.45;;;35.15;;
10863;SDS011;5485;37.558;126.950;2023-02-28T04:18:48;46.53;;;34.47;;
10863;SDS011;5485;37.558;126.950;2023-02-28T04:21:15;37.50;;;31.00;;
10863;SDS011;5485;37.558;126.950;2023-02-28T04:23:46;36.13;;;29.37;;
10863;SDS011;5485;37.558;126.950;2023-02-28T04:26:13;32.07;;;27.03;;
10863;SDS011;5485;37.558;126.950;2023-02-28T04:28:39;33.63;;;27.50;;
10863;SDS011;5485;37.558;126.950;2023-02-28T04:31:08;40.05;;;29.13;;
10863;SDS011;5485;37.558;126.950;2023-02-28T04:33:36;34.28;;;27.98;;
10863;SDS011;5485;37.558;126.950;2023-02-28T04:36:04;31.05;;;26.50;;
10863;SDS011;5485;37.558;126.950;2023-02-28T04:38:37;32.45;;;25.60;;
10863;SDS011;5485;37.558;126.950;2023-02-28T04:41:04;33.78;;;26.10;;
10863;SDS011;5485;37.558;126.950;2023-02-28T04:43:32;35.60;;;26.52;;
10863;SDS011;5485;37.558;126.950;2023-02-28T04:46:00;33.28;;;26.90;;
10863;SDS011;5485;37.558;126.950;2023-02-28T04:48:31;30.98;;;26.48;;
10863;SDS011;5485;37.558;126.950;2023-02-28T04:51:18;27.83;;;24.50;;
10863;SDS011;5485;37.558;126.950;2023-02-28T04:53:46;28.25;;;24.00;;
10863;SDS011;5485;37.558;126.950;2023-02-28T04:56:14;31.33;;;24.00;;
10863;SDS011;5485;37.558;126.950;2023-02-28T04:58:42;30.80;;;24.13;;
10863;SDS011;5485;37.558;126.950;2023-02-28T05:01:25;30.00;;;23.88;;
10863;SDS011;5485;37.558;126.950;2023-02-28T05:03:55;29.15;;;24.42;;
10863;SDS011;5485;37.558;126.950;2023-02-28T05:06:25;29.15;;;24.13;;
10863;SDS011;5485;37.558;126.950;2023-02-28T05:08:52;25.02;;;22.40;;
10863;SDS011;5485;37.558;126.950;2023-02-28T05:11:21;26.65;;;22.52;;
10863;SDS011;5485;37.558;126.950;2023-02-28T05:14:03;33.22;;;25.63;;
10863;SDS011;5485;37.558;126.950;2023-02-28T05:16:33;36.13;;;24.65;;
10863;SDS011;5485;37.558;126.950;2023-02-28T05:19:00;30.35;;;23.83;;
10863;SDS011;5485;37.558;126.950;2023-02-28T05:21:30;30.42;;;24.52;;
10863;SDS011;5485;37.558;126.950;2023-02-28T05:23:59;32.50;;;25.58;;
10863;SDS011;5485;37.558;126.950;2023-02-28T05:26:28;28.00;;;24.50;;
10863;SDS011;5485;37.558;126.950;2023-02-28T05:28:55;28.92;;;24.08;;
10863;SDS011;5485;37.558;126.950;2023-02-28T05:31:22;33.70;;;24.67;;
10863;SDS011;5485;37.558;126.950;2023-02-28T05:33:49;31.83;;;25.05;;
10863;SDS011;5485;37.558;126.950;2023-02-28T05:36:17;30.13;;;23.23;;
10863;SDS011;5485;37.558;126.950;2023-02-28T05:38:45;29.48;;;23.00;;
10863;SDS011;5485;37.558;126.950;2023-02-28T05:41:13;23.52;;;19.70;;
10863;SDS011;5485;37.558;126.950;2023-02-28T05:43:40;25.45;;;17.88;;
10863;SDS011;5485;37.558;126.950;2023-02-28T05:46:08;20.40;;;16.13;;
10863;SDS011;5485;37.558;126.950;2023-02-28T05:48:37;21.90;;;17.13;;
10863;SDS011;5485;37.558;126.950;2023-02-28T05:51:05;21.98;;;17.88;;
10863;SDS011;5485;37.558;126.950;2023-02-28T05:53:34;21.55;;;17.27;;
10863;SDS011;5485;37.558;126.950;2023-02-28T05:56:01;24.60;;;18.20;;
10863;SDS011;5485;37.558;126.950;2023-02-28T05:58:29;21.30;;;17.15;;
10863;SDS011;5485;37.558;126.950;2023-02-28T06:00:56;21.63;;;17.23;;
10863;SDS011;5485;37.558;126.950;2023-02-28T06:03:24;20.50;;;16.25;;
10863;SDS011;5485;37.558;126.950;2023-02-28T06:05:51;19.60;;;16.38;;
10863;SDS011;5485;37.558;126.950;2023-02-28T06:08:19;19.92;;;16.02;;
10863;SDS011;5485;37.558;126.950;2023-02-28T06:10:46;22.43;;;18.23;;
10863;SDS011;5485;37.558;126.950;2023-02-28T06:13:13;21.65;;;17.48;;
10863;SDS011;5485;37.558;126.950;2023-02-28T06:15:40;23.83;;;18.80;;
10863;SDS011;5485;37.558;126.950;2023-02-28T06:18:07;25.88;;;18.42;;
10863;SDS011;5485;37.558;126.950;2023-02-28T06:20:34;21.13;;;17.55;;
10863;SDS011;5485;37.558;126.950;2023-02-28T06:23:01;22.20;;;17.50;;
10863;SDS011;5485;37.558;126.950;2023-02-28T06:25:28;38.55;;;17.83;;
10863;SDS011;5485;37.558;126.950;2023-02-28T06:27:55;22.10;;;16.93;;
10863;SDS011;5485;37.558;126.950;2023-02-28T06:30:22;18.00;;;16.05;;
10863;SDS011;5485;37.558;126.950;2023-02-28T06:32:52;22.97;;;17.37;;
10863;SDS011;5485;37.558;126.950;2023-02-28T06:35:19;22.20;;;17.83;;
10863;SDS011;5485;37.558;126.950;2023-02-28T06:37:47;22.57;;;19.07;;
10863;SDS011;5485;37.558;126.950;2023-02-28T06:40:14;24.30;;;19.10;;
10863;SDS011;5485;37.558;126.950;2023-02-28T06:42:41;23.03;;;18.63;;
10863;SDS011;5485;37.558;126.950;2023-02-28T06:45:08;23.67;;;18.77;;
10863;SDS011;5485;37.558;126.950;2023-02-28T06:47:37;22.87;;;18.63;;
10863;SDS011;5485;37.558;126.950;2023-02-28T06:50:06;20.27;;;18.03;;
10863;SDS011;5485;37.558;126.950;2023-02-28T06:52:37;22.07;;;18.07;;
10863;SDS011;5485;37.558;126.950;2023-02-28T06:55:05;23.33;;;17.40;;
10863;SDS011;5485;37.558;126.950;2023-02-28T06:57:33;20.43;;;17.03;;
10863;SDS011;5485;37.558;126.950;2023-02-28T07:00:04;22.73;;;17.57;;
10863;SDS011;5485;37.558;126.950;2023-02-28T07:02:34;22.13;;;16.83;;
10863;SDS011;5485;37.558;126.950;2023-02-28T07:05:03;28.90;;;18.13;;
10863;SDS011;5485;37.558;126.950;2023-02-28T07:07:31;21.47;;;17.70;;
10863;SDS011;5485;37.558;126.950;2023-02-28T07:09:57;21.47;;;17.83;;
10863;SDS011;5485;37.558;126.950;2023-02-28T07:12:24;21.93;;;17.63;;
10863;SDS011;5485;37.558;126.950;2023-02-28T07:14:51;20.60;;;17.03;;
10863;SDS011;5485;37.558;126.950;2023-02-28T07:17:19;23.83;;;16.83;;
10863;SDS011;5485;37.558;126.950;2023-02-28T07:19:46;20.00;;;16.70;;
10863;SDS011;5485;37.558;126.950;2023-02-28T07:22:13;19.03;;;17.03;;
10863;SDS011;5485;37.558;126.950;2023-02-28T07:24:40;20.23;;;16.00;;
10863;SDS011;5485;37.558;126.950;2023-02-28T07:27:07;17.43;;;14.43;;
10863;SDS011;5485;37.558;126.950;2023-02-28T07:29:34;17.47;;;14.47;;
10863;SDS011;5485;37.558;126.950;2023-02-28T07:32:01;16.33;;;14.67;;
10863;SDS011;5485;37.558;126.950;2023-02-28T07:34:27;19.43;;;15.07;;
10863;SDS011;5485;37.558;126.950;2023-02-28T07:36:55;17.60;;;15.57;;
10863;SDS011;5485;37.558;126.950;2023-02-28T07:39:22;17.23;;;14.53;;
10863;SDS011;5485;37.558;126.950;2023-02-28T07:41:50;16.77;;;14.97;;
10863;SDS011;5485;37.558;126.950;2023-02-28T07:44:17;23.90;;;16.20;;
10863;SDS011;5485;37.558;126.950;2023-02-28T07:46:43;17.50;;;14.57;;
10863;SDS011;5485;37.558;126.950;2023-02-28T07:49:10;16.50;;;14.80;;
10863;SDS011;5485;37.558;126.950;2023-02-28T07:51:37;17.97;;;14.70;;
10863;SDS011;5485;37.558;126.950;2023-02-28T07:54:04;23.07;;;16.00;;
10863;SDS011;5485;37.558;126.950;2023-02-28T07:56:31;17.60;;;14.53;;
10863;SDS011;5485;37.558;126.950;2023-02-28T07:58:58;18.53;;;15.00;;
10863;SDS011;5485;37.558;126.950;2023-02-28T08:01:26;18.47;;;14.73;;
10863;SDS011;5485;37.558;126.950;2023-02-28T08:03:53;18.20;;;14.70;;
10863;SDS011;5485;37.558;126.950;2023-02-28T08:06:22;17.60;;;14.37;;
10863;SDS011;5485;37.558;126.950;2023-02-28T08:08:52;17.40;;;15.43;;
10863;SDS011;5485;37.558;126.950;2023-02-28T08:11:21;20.43;;;17.70;;
10863;SDS011;5485;37.558;126.950;2023-02-28T08:13:48;20.43;;;16.67;;
10863;SDS011;5485;37.558;126.950;2023-02-28T08:16:15;23.07;;;18.47;;
10863;SDS011;5485;37.558;126.950;2023-02-28T08:18:46;21.60;;;17.83;;
10863;SDS011;5485;37.558;126.950;2023-02-28T08:21:17;20.67;;;18.37;;
10863;SDS011;5485;37.558;126.950;2023-02-28T08:23:46;19.13;;;17.13;;
10863;SDS011;5485;37.558;126.950;2023-02-28T08:26:14;19.87;;;16.90;;
10863;SDS011;5485;37.558;126.950;2023-02-28T08:28:41;24.90;;;19.17;;
10863;SDS011;5485;37.558;126.950;2023-02-28T08:31:10;22.80;;;18.47;;
10863;SDS011;5485;37.558;126.950;2023-02-28T08:33:39;25.43;;;20.33;;
10863;SDS011;5485;37.558;126.950;2023-02-28T08:36:07;23.60;;;20.07;;
10863;SDS011;5485;37.558;126.950;2023-02-28T08:38:35;23.43;;;21.00;;
10863;SDS011;5485;37.558;126.950;2023-02-28T08:41:04;22.80;;;19.00;;
10863;SDS011;5485;37.558;126.950;2023-02-28T08:43:35;21.50;;;14.47;;
10863;SDS011;5485;37.558;126.950;2023-02-28T08:46:02;19.53;;;17.47;;
10863;SDS011;5485;37.558;126.950;2023-02-28T08:48:31;20.40;;;18.17;;
10863;SDS011;5485;37.558;126.950;2023-02-28T08:51:06;21.80;;;17.80;;
10863;SDS011;5485;37.558;126.950;2023-02-28T08:53:36;21.60;;;19.30;;
10863;SDS011;5485;37.558;126.950;2023-02-28T08:58:33;23.13;;;18.30;;
10863;SDS011;5485;37.558;126.950;2023-02-28T09:01:07;19.27;;;15.73;;
10863;SDS011;5485;37.558;126.950;2023-02-28T09:03:38;19.37;;;16.00;;
10863;SDS011;5485;37.558;126.950;2023-02-28T09:06:07;24.00;;;17.50;;
10863;SDS011;5485;37.558;126.950;2023-02-28T09:08:34;22.53;;;17.73;;
10863;SDS011;5485;37.558;126.950;2023-02-28T09:11:02;19.53;;;16.77;;
10863;SDS011;5485;37.558;126.950;2023-02-28T09:13:29;20.77;;;17.73;;
10863;SDS011;5485;37.558;126.950;2023-02-28T09:15:58;19.80;;;16.00;;
10863;SDS011;5485;37.558;126.950;2023-02-28T09:18:26;22.13;;;18.33;;
10863;SDS011;5485;37.558;126.950;2023-02-28T09:20:53;18.93;;;15.67;;
10863;SDS011;5485;37.558;126.950;2023-02-28T09:23:20;14.60;;;13.10;;
10863;SDS011;5485;37.558;126.950;2023-02-28T09:25:54;19.23;;;14.13;;
10863;SDS011;5485;37.558;126.950;2023-02-28T09:28:21;17.13;;;13.87;;
10863;SDS011;5485;37.558;126.950;2023-02-28T09:30:50;20.83;;;16.10;;
10863;SDS011;5485;37.558;126.950;2023-02-28T09:33:18;17.80;;;14.23;;
10863;SDS011;5485;37.558;126.950;2023-02-28T09:35:46;10.77;;;8.90;;
10863;SDS011;5485;37.558;126.950;2023-02-28T09:38:14;13.10;;;10.60;;
10863;SDS011;5485;37.558;126.950;2023-02-28T09:43:18;14.73;;;11.90;;
10863;SDS011;5485;37.558;126.950;2023-02-28T09:46:12;14.47;;;12.73;;
10863;SDS011;5485;37.558;126.950;2023-02-28T09:48:37;21.37;;;13.27;;
10863;SDS011;5485;37.558;126.950;2023-02-28T09:51:30;13.33;;;12.03;;
10863;SDS011;5485;37.558;126.950;2023-02-28T09:53:58;12.57;;;11.13;;
10863;SDS011;5485;37.558;126.950;2023-02-28T09:56:39;14.47;;;12.20;;
10863;SDS011;5485;37.558;126.950;2023-02-28T10:05:05;15.43;;;12.80;;
10863;SDS011;5485;37.558;126.950;2023-02-28T10:10:24;17.97;;;13.33;;
10863;SDS011;5485;37.558;126.950;2023-02-28T10:12:53;15.10;;;12.03;;
10863;SDS011;5485;37.558;126.950;2023-02-28T10:15:24;18.17;;;13.27;;
10863;SDS011;5485;37.558;126.950;2023-02-28T10:17:54;18.23;;;14.67;;
10863;SDS011;5485;37.558;126.950;2023-02-28T10:20:24;19.13;;;13.93;;
10863;SDS011;5485;37.558;126.950;2023-02-28T10:25:33;15.23;;;13.67;;
10863;SDS011;5485;37.558;126.950;2023-02-28T10:28:12;15.47;;;13.70;;
10863;SDS011;5485;37.558;126.950;2023-02-28T10:30:47;19.93;;;15.20;;
10863;SDS011;5485;37.558;126.950;2023-02-28T10:33:33;19.93;;;15.53;;
10863;SDS011;5485;37.558;126.950;2023-02-28T10:36:02;19.63;;;16.20;;
10863;SDS011;5485;37.558;126.950;2023-02-28T10:38:36;19.07;;;15.97;;
10863;SDS011;5485;37.558;126.950;2023-02-28T10:41:08;17.87;;;16.03;;
10863;SDS011;5485;37.558;126.950;2023-02-28T10:43:38;22.83;;;16.67;;
10863;SDS011;5485;37.558;126.950;2023-02-28T10:51:16;25.00;;;18.23;;
10863;SDS011;5485;37.558;126.950;2023-02-28T10:53:54;22.23;;;17.70;;
10863;SDS011;5485;37.558;126.950;2023-02-28T10:56:22;23.67;;;18.10;;
10863;SDS011;5485;37.558;126.950;2023-02-28T10:58:54;18.77;;;15.33;;
10863;SDS011;5485;37.558;126.950;2023-02-28T11:07:39;21.07;;;15.60;;
10863;SDS011;5485;37.558;126.950;2023-02-28T11:09:49;22.57;;;16.83;;
10863;SDS011;5485;37.558;126.950;2023-02-28T11:15:45;17.37;;;15.50;;
10863;SDS011;5485;37.558;126.950;2023-02-28T11:18:01;19.07;;;15.03;;
10863;SDS011;5485;37.558;126.950;2023-02-28T11:20:50;22.37;;;16.27;;
10863;SDS011;5485;37.558;126.950;2023-02-28T11:23:19;16.47;;;14.33;;
10863;SDS011;5485;37.558;126.950;2023-02-28T11:25:48;17.40;;;14.70;;
10863;SDS011;5485;37.558;126.950;2023-02-28T11:28:29;18.50;;;14.97;;
10863;SDS011;5485;37.558;126.950;2023-02-28T11:31:00;18.73;;;15.27;;
10863;SDS011;5485;37.558;126.950;2023-02-28T11:33:46;17.73;;;14.17;;
10863;SDS011;5485;37.558;126.950;2023-02-28T11:36:20;20.43;;;15.60;;
10863;SDS011;5485;37.558;126.950;2023-02-28T11:38:56;19.87;;;17.37;;
10863;SDS011;5485;37.558;126.950;2023-02-28T11:41:43;23.17;;;16.40;;
10863;SDS011;5485;37.558;126.950;2023-02-28T11:53:05;21.03;;;17.47;;
10863;SDS011;5485;37.558;126.950;2023-02-28T11:55:45;24.23;;;17.43;;
10863;SDS011;5485;37.558;126.950;2023-02-28T11:58:37;21.30;;;15.60;;
10863;SDS011;5485;37.558;126.950;2023-02-28T12:14:06;23.00;;;16.53;;
10863;SDS011;5485;37.558;126.950;2023-02-28T12:19:44;22.57;;;15.70;;
10863;SDS011;5485;37.558;126.950;2023-02-28T12:22:22;17.57;;;15.67;;
10863;SDS011;5485;37.558;126.950;2023-02-28T12:27:40;21.23;;;16.10;;
10863;SDS011;5485;37.558;126.950;2023-02-28T12:32:56;18.17;;;14.97;;
10863;SDS011;5485;37.558;126.950;2023-02-28T12:35:37;19.30;;;15.27;;
10863;SDS011;5485;37.558;126.950;2023-02-28T12:38:40;19.17;;;16.03;;
10863;SDS011;5485;37.558;126.950;2023-02-28T12:44:02;23.80;;;15.97;;
10863;SDS011;5485;37.558;126.950;2023-02-28T12:46:44;19.10;;;14.93;;
10863;SDS011;5485;37.558;126.950;2023-02-28T12:51:50;17.63;;;15.30;;
10863;SDS011;5485;37.558;126.950;2023-02-28T13:10:50;18.30;;;14.90;;
10863;SDS011;5485;37.558;126.950;2023-02-28T13:13:21;19.53;;;15.83;;
10863;SDS011;5485;37.558;126.950;2023-02-28T13:18:32;18.40;;;14.83;;
10863;SDS011;5485;37.558;126.950;2023-02-28T13:20:59;17.13;;;15.23;;
10863;SDS011;5485;37.558;126.950;2023-02-28T13:23:40;18.33;;;15.20;;
10863;SDS011;5485;37.558;126.950;2023-02-28T13:37:32;17.63;;;15.40;;
10863;SDS011;5485;37.558;126.950;2023-02-28T13:42:46;18.50;;;16.27;;
10863;SDS011;5485;37.558;126.950;2023-02-28T13:46:15;17.77;;;15.03;;
10863;SDS011;5485;37.558;126.950;2023-02-28T13:48:29;19.30;;;14.93;;
10863;SDS011;5485;37.558;126.950;2023-02-28T13:50:56;16.97;;;15.17;;
10863;SDS011;5485;37.558;126.950;2023-02-28T13:53:32;21.27;;;15.93;;
10863;SDS011;5485;37.558;126.950;2023-02-28T13:56:24;19.57;;;15.33;;
10863;SDS011;5485;37.558;126.950;2023-02-28T13:59:31;18.87;;;15.83;;
10863;SDS011;5485;37.558;126.950;2023-02-28T14:07:45;19.30;;;16.00;;
10863;SDS011;5485;37.558;126.950;2023-02-28T14:10:45;20.17;;;16.40;;
10863;SDS011;5485;37.558;126.950;2023-02-28T14:15:59;19.87;;;15.53;;
10863;SDS011;5485;37.558;126.950;2023-02-28T14:18:32;19.17;;;16.17;;
10863;SDS011;5485;37.558;126.950;2023-02-28T14:21:32;18.70;;;16.20;;
10863;SDS011;5485;37.558;126.950;2023-02-28T14:37:53;20.87;;;16.83;;
10863;SDS011;5485;37.558;126.950;2023-02-28T14:40:28;19.43;;;17.10;;
10863;SDS011;5485;37.558;126.950;2023-02-28T14:43:18;20.30;;;16.93;;
10863;SDS011;5485;37.558;126.950;2023-02-28T14:45:53;24.67;;;16.60;;
10863;SDS011;5485;37.558;126.950;2023-02-28T14:48:25;19.27;;;16.00;;
10863;SDS011;5485;37.558;126.950;2023-02-28T14:50:54;18.97;;;16.93;;
10863;SDS011;5485;37.558;126.950;2023-02-28T14:53:27;24.30;;;16.63;;
10863;SDS011;5485;37.558;126.950;2023-02-28T14:55:56;20.93;;;17.53;;
10863;SDS011;5485;37.558;126.950;2023-02-28T14:58:28;24.63;;;16.07;;
10863;SDS011;5485;37.558;126.950;2023-02-28T15:01:01;23.87;;;16.93;;
10863;SDS011;5485;37.558;126.950;2023-02-28T15:03:30;20.97;;;17.97;;
10863;SDS011;5485;37.558;126.950;2023-02-28T15:05:59;26.10;;;17.80;;
10863;SDS011;5485;37.558;126.950;2023-02-28T15:08:30;19.60;;;17.50;;
10863;SDS011;5485;37.558;126.950;2023-02-28T15:11:02;23.10;;;17.23;;
10863;SDS011;5485;37.558;126.950;2023-02-28T15:13:48;23.07;;;17.03;;
10863;SDS011;5485;37.558;126.950;2023-02-28T15:16:21;21.07;;;17.13;;
10863;SDS011;5485;37.558;126.950;2023-02-28T15:21:52;21.50;;;17.27;;
10863;SDS011;5485;37.558;126.950;2023-02-28T15:24:43;19.67;;;17.57;;
10863;SDS011;5485;37.558;126.950;2023-02-28T15:27:14;22.50;;;16.40;;
10863;SDS011;5485;37.558;126.950;2023-02-28T15:29:57;20.10;;;17.07;;
10863;SDS011;5485;37.558;126.950;2023-02-28T15:32:36;22.93;;;17.00;;
10863;SDS011;5485;37.558;126.950;2023-02-28T15:38:44;21.40;;;17.23;;
10863;SDS011;5485;37.558;126.950;2023-02-28T15:41:42;19.60;;;16.30;;
10863;SDS011;5485;37.558;126.950;2023-02-28T15:44:35;21.00;;;17.50;;
10863;SDS011;5485;37.558;126.950;2023-02-28T15:47:23;23.47;;;17.40;;
10863;SDS011;5485;37.558;126.950;2023-02-28T15:49:53;24.13;;;19.07;;
10863;SDS011;5485;37.558;126.950;2023-02-28T15:52:38;21.23;;;17.47;;
10863;SDS011;5485;37.558;126.950;2023-02-28T15:55:18;20.07;;;17.40;;
10863;SDS011;5485;37.558;126.950;2023-02-28T15:57:48;20.20;;;17.67;;
10863;SDS011;5485;37.558;126.950;2023-02-28T16:00:21;23.27;;;17.40;;
10863;SDS011;5485;37.558;126.950;2023-02-28T16:02:49;21.90;;;17.90;;
10863;SDS011;5485;37.558;126.950;2023-02-28T16:05:24;23.17;;;17.53;;
10863;SDS011;5485;37.558;126.950;2023-02-28T16:08:01;19.83;;;16.80;;
10863;SDS011;5485;37.558;126.950;2023-02-28T16:10:40;22.17;;;18.53;;
10863;SDS011;5485;37.558;126.950;2023-02-28T16:13:08;22.17;;;18.40;;
10863;SDS011;5485;37.558;126.950;2023-02-28T16:15:41;21.37;;;18.90;;
10863;SDS011;5485;37.558;126.950;2023-02-28T16:18:12;22.90;;;18.90;;
10863;SDS011;5485;37.558;126.950;2023-02-28T16:20:39;23.33;;;18.30;;
10863;SDS011;5485;37.558;126.950;2023-02-28T16:23:06;26.50;;;19.27;;
10863;SDS011;5485;37.558;126.950;2023-02-28T16:25:37;25.93;;;18.77;;
10863;SDS011;5485;37.558;126.950;2023-02-28T16:28:15;24.53;;;19.47;;
10863;SDS011;5485;37.558;126.950;2023-02-28T16:30:56;24.10;;;19.70;;
10863;SDS011;5485;37.558;126.950;2023-02-28T16:33:23;23.20;;;19.23;;
10863;SDS011;5485;37.558;126.950;2023-02-28T16:35:50;21.90;;;16.50;;
10863;SDS011;5485;37.558;126.950;2023-02-28T16:38:16;21.60;;;18.80;;
10863;SDS011;5485;37.558;126.950;2023-02-28T16:40:43;24.60;;;19.33;;
10863;SDS011;5485;37.558;126.950;2023-02-28T16:43:28;24.57;;;19.83;;
10863;SDS011;5485;37.558;126.950;2023-02-28T16:45:56;26.33;;;20.87;;
10863;SDS011;5485;37.558;126.950;2023-02-28T16:48:23;21.93;;;19.30;;
10863;SDS011;5485;37.558;126.950;2023-02-28T16:50:51;24.87;;;20.03;;
10863;SDS011;5485;37.558;126.950;2023-02-28T16:53:17;22.00;;;19.33;;
10863;SDS011;5485;37.558;126.950;2023-02-28T16:55:44;21.90;;;18.60;;
10863;SDS011;5485;37.558;126.950;2023-02-28T16:58:15;19.70;;;16.37;;
10863;SDS011;5485;37.558;126.950;2023-02-28T17:00:44;19.07;;;16.07;;
10863;SDS011;5485;37.558;126.950;2023-02-28T17:03:22;21.57;;;16.60;;
10863;SDS011;5485;37.558;126.950;2023-02-28T17:05:50;22.77;;;18.00;;
10863;SDS011;5485;37.558;126.950;2023-02-28T17:08:17;24.20;;;18.50;;
10863;SDS011;5485;37.558;126.950;2023-02-28T17:10:44;21.93;;;17.63;;
10863;SDS011;5485;37.558;126.950;2023-02-28T17:13:11;26.33;;;18.67;;
10863;SDS011;5485;37.558;126.950;2023-02-28T17:15:38;22.83;;;18.27;;
10863;SDS011;5485;37.558;126.950;2023-02-28T17:18:06;24.17;;;19.13;;